Time;durP1;ratioP1;P1;durP2;ratioP2;P2;SDS_P1;SDS_P2;PMS_P1;PMS_P2;Temp;Humidity;BMP_temperature;BMP_pressure;BME280_temperature;BME280_humidity;BME280_pressure;Samples;Min_cycle;Max_cycle;Signal;HPM_P1;HPM_P2
2021/12/12 00:01:12;;;;;;;;;;;;;;;16.69;44.60;101932.22;5085199;28;19920;-50
2021/12/12 00:03:40;;;;;;;;;;;;;;;16.70;44.65;101927.69;5085594;28;19912;-47
2021/12/12 00:06:08;;;;;;;;;;;;;;;16.70;44.52;101928.56;5085275;28;19912;-46
2021/12/12 00:08:34;;;;;;;;;;;;;;;16.70;44.65;101923.19;5085258;28;19920;-51
2021/12/12 00:11:01;;;;;;;;;;;;;;;16.70;44.66;101919.66;5084812;28;19920;-47
2021/12/12 00:13:29;;;;;;;;;;;;;;;16.69;44.64;101918.78;5085460;28;19923;-48
2021/12/12 00:15:55;;;;;;;;;;;;;;;16.69;44.62;101908.06;5084370;28;19913;-48
2021/12/12 00:18:20;;;;;;;;;;;;;;;16.70;44.50;101916.97;5085031;28;19913;-50
2021/12/12 00:20:45;;;;;;;;;;;;;;;16.70;44.51;101922.34;5084892;28;19970;-47
2021/12/12 00:23:11;;;;;;;;;;;;;;;16.70;44.65;101919.66;5084622;28;20401;-49
2021/12/12 00:25:41;;;;;;;;;;;;;;;16.69;44.49;101912.56;5066868;28;19919;-51
2021/12/12 00:28:07;;;;;;;;;;;;;;;16.70;44.49;101906.22;5084946;28;19920;-49
2021/12/12 00:30:32;;;;;;;;;;;;;;;16.70;44.59;101900.84;5083892;28;19905;-49
2021/12/12 00:32:58;;;;;;;;;;;;;;;16.69;44.45;101905.38;5085202;28;19913;-50
2021/12/12 00:35:23;;;;;;;;;;;;;;;16.70;44.57;101893.63;5084995;28;20009;-50
2021/12/12 00:37:51;;;;;;;;;;;;;;;16.71;44.50;101891.81;5084460;28;19924;-48
2021/12/12 00:40:16;;;;;;;;;;;;;;;16.70;44.51;101887.44;5084501;28;20059;-49
2021/12/12 00:42:41;;;;;;;;;;;;;;;16.70;44.40;101887.44;5066952;28;19924;-47
2021/12/12 00:45:09;;;;;;;;;;;;;;;16.69;44.49;101877.63;5083886;28;19923;-46
2021/12/12 00:47:34;;;;;;;;;;;;;;;16.70;44.45;101885.59;5083424;28;19912;-47
2021/12/12 00:49:59;;;;;;;;;;;;;;;16.70;44.47;101890.09;5084396;28;19919;-48
2021/12/12 00:52:24;;;;;;;;;;;;;;;16.70;44.43;101888.28;5084105;28;19912;-50
2021/12/12 00:54:50;;;;;;;;;;;;;;;16.69;44.40;101888.38;5084063;28;19924;-50
2021/12/12 00:57:16;;;;;;;;;;;;;;;16.70;44.50;101887.44;5084664;28;19912;-49
2021/12/12 00:59:43;;;;;;;;;;;;;;;16.69;44.49;101881.19;5083811;28;19966;-47
2021/12/12 01:02:09;;;;;;;;;;;;;;;16.69;44.47;101872.28;5084095;28;19959;-50
2021/12/12 01:04:36;;;;;;;;;;;;;;;16.68;44.41;101874.09;5084166;28;19919;-50
2021/12/12 01:07:04;;;;;;;;;;;;;;;16.68;44.46;101879.47;5084395;28;19913;-50
2021/12/12 01:09:31;;;;;;;;;;;;;;;16.68;44.44;101876.78;5083294;28;19917;-50
2021/12/12 01:11:58;;;;;;;;;;;;;;;16.68;44.52;101866.06;5084373;28;19947;-50
2021/12/12 01:14:25;;;;;;;;;;;;;;;16.68;44.39;101874.09;5084461;28;19919;-49
2021/12/12 01:16:50;;;;;;;;;;;;;;;16.68;44.63;101878.63;5083616;28;19916;-52
2021/12/12 01:19:17;;;;;;;;;;;;;;;16.69;44.40;101886.56;5084037;28;19912;-50
2021/12/12 01:21:45;;;;;;;;;;;;;;;16.58;44.51;101859.78;5083671;28;19948;-45
2021/12/12 01:24:13;;;;;;;;;;;;;;;16.69;44.38;101875.84;5084249;28;19938;-50
2021/12/12 01:26:40;;;;;;;;;;;;;;;16.69;44.43;101877.63;5083978;28;19916;-49
2021/12/12 01:29:05;;;;;;;;;;;;;;;16.68;44.52;101876.78;5083794;28;19983;-50
2021/12/12 01:31:32;;;;;;;;;;;;;;;16.69;44.42;101878.53;5082215;28;19952;-47
2021/12/12 01:34:09;;;;;;;;;;;;;;;16.68;44.61;101884.84;5084371;28;19912;-45
2021/12/12 01:36:53;;;;;;;;;;;;;;;16.68;44.60;101874.09;5063882;28;19917;-49
2021/12/12 01:39:20;;;;;;;;;;;;;;;16.68;44.43;101878.63;5063874;28;20381;-48
2021/12/12 01:41:55;;;;;;;;;;;;;;;16.68;44.46;101870.56;5063900;28;19916;-47
2021/12/12 01:44:22;;;;;;;;;;;;;;;16.68;44.50;101876.78;5064059;28;19920;-48
2021/12/12 01:46:51;;;;;;;;;;;;;;;16.69;44.63;101875.84;5082090;28;19976;-48
2021/12/12 01:49:18;;;;;;;;;;;;;;;16.69;44.56;101877.63;5083933;28;19912;-48
2021/12/12 01:51:43;;;;;;;;;;;;;;;16.69;44.43;101869.59;5083481;28;19927;-47
2021/12/12 01:54:09;;;;;;;;;;;;;;;16.66;44.32;101865.34;5084067;28;19916;-47
2021/12/12 01:56:39;;;;;;;;;;;;;;;16.68;44.55;101875.94;5083608;28;19913;-47
2021/12/12 01:59:05;;;;;;;;;;;;;;;16.68;44.51;101873.25;5083618;28;19917;-50
2021/12/12 02:01:33;;;;;;;;;;;;;;;16.68;44.47;101871.41;5070146;28;19916;-49
2021/12/12 02:03:59;;;;;;;;;;;;;;;16.68;44.46;101875.94;5063886;28;19912;-49
2021/12/12 02:06:24;;;;;;;;;;;;;;;16.68;44.44;101873.25;5045595;28;19913;-49
2021/12/12 02:08:50;;;;;;;;;;;;;;;16.68;44.50;101868.72;5045609;28;19920;-51
2021/12/12 02:11:16;;;;;;;;;;;;;;;16.69;44.36;101874.97;5063346;28;19968;-50
2021/12/12 02:13:43;;;;;;;;;;;;;;;16.69;44.30;101869.59;5063652;28;19919;-48
2021/12/12 02:16:09;;;;;;;;;;;;;;;16.69;44.40;101870.47;5062947;28;19923;-49
2021/12/12 02:18:37;;;;;;;;;;;;;;;16.70;44.42;101865.94;5063534;28;20519;-48
2021/12/12 02:21:13;;;;;;;;;;;;;;;16.71;44.50;101875.69;5075014;28;19923;-46
2021/12/12 02:37:20;;;;;;;;;;;;;;;16.69;44.40;101864.22;5087053;28;19920;-47
2021/12/12 02:39:45;;;;;;;;;;;;;;;16.68;44.37;101862.53;5069048;28;19960;-50
2021/12/12 02:42:11;;;;;;;;;;;;;;;16.69;44.36;101869.59;5069197;28;19913;-48
2021/12/12 02:44:38;;;;;;;;;;;;;;;16.68;44.48;101866.06;5086826;28;20511;-49
2021/12/12 02:47:10;;;;;;;;;;;;;;;16.68;44.51;101859.84;5086670;28;19913;-48
2021/12/12 02:49:42;;;;;;;;;;;;;;;16.68;44.41;101855.31;5086934;28;19951;-50
2021/12/12 02:52:09;;;;;;;;;;;;;;;16.69;44.42;101850.78;5086191;28;19983;-49
2021/12/12 02:54:35;;;;;;;;;;;;;;;16.68;44.51;101852.63;5086516;28;19923;-47
2021/12/12 02:57:00;;;;;;;;;;;;;;;16.68;44.48;101844.56;5086742;28;19912;-46
2021/12/12 02:59:25;;;;;;;;;;;;;;;16.69;44.47;101842.72;5086451;28;19935;-46
2021/12/12 03:01:55;;;;;;;;;;;;;;;16.69;44.54;101840.03;5086116;28;19923;-47
2021/12/12 03:04:21;;;;;;;;;;;;;;;16.69;44.53;101840.03;5068673;28;19913;-47
2021/12/12 03:06:47;;;;;;;;;;;;;;;16.68;44.43;101835.66;5086329;28;19951;-48
2021/12/12 03:09:15;;;;;;;;;;;;;;;16.68;44.51;101827.59;5086431;28;19908;-46
2021/12/12 03:11:40;;;;;;;;;;;;;;;16.68;44.45;101828.47;5086209;28;19960;-48
2021/12/12 03:14:05;;;;;;;;;;;;;;;16.59;44.38;101810.47;5086751;28;19920;-46
2021/12/12 03:16:31;;;;;;;;;;;;;;;16.70;44.52;101828.34;5085859;28;19919;-51
2021/12/12 03:18:56;;;;;;;;;;;;;;;16.69;44.32;101832.88;5086193;28;19912;-48
2021/12/12 03:21:30;;;;;;;;;;;;;;;16.69;44.34;101827.50;5086111;28;19917;-46
2021/12/12 03:23:56;;;;;;;;;;;;;;;16.69;44.42;101834.69;5086690;28;19920;-47
2021/12/12 03:26:22;;;;;;;;;;;;;;;16.70;44.51;101833.72;5086087;28;19912;-49
2021/12/12 03:28:49;;;;;;;;;;;;;;;16.69;44.37;101834.69;5085618;28;19916;-51
2021/12/12 03:31:16;;;;;;;;;;;;;;;16.70;44.52;101836.41;5085673;28;19916;-45
2021/12/12 03:33:41;;;;;;;;;;;;;;;16.69;44.44;101829.31;5085543;28;19972;-48
2021/12/12 03:36:07;;;;;;;;;;;;;;;16.68;44.54;101823.09;5086336;28;19919;-46
2021/12/12 03:38:33;;;;;;;;;;;;;;;16.68;44.37;101823.09;5085976;28;19913;-48
2021/12/12 03:41:00;;;;;;;;;;;;;;;16.68;44.47;101820.41;5085840;28;19999;-46
2021/12/12 03:43:25;;;;;;;;;;;;;;;16.68;44.34;101822.25;5085916;28;19919;-49
2021/12/12 03:45:50;;;;;;;;;;;;;;;16.68;44.45;101811.50;5085067;28;19983;-51
2021/12/12 03:48:27;;;;;;;;;;;;;;;16.68;44.45;101803.44;5085749;28;19983;-46
2021/12/12 03:50:53;;;;;;;;;;;;;;;16.67;44.40;101799.91;5085442;28;19917;-47
2021/12/12 03:53:18;;;;;;;;;;;;;;;16.69;44.40;101802.44;5085619;28;20546;-46
2021/12/12 03:55:44;;;;;;;;;;;;;;;16.68;44.43;101798.06;5085658;28;19976;-48
2021/12/12 03:58:09;;;;;;;;;;;;;;;16.68;44.40;101801.59;5085745;28;19916;-48
2021/12/12 04:00:41;;;;;;;;;;;;;;;16.68;44.53;101804.28;5084274;28;20006;-49
2021/12/12 04:03:06;;;;;;;;;;;;;;;16.68;44.53;101814.19;5085714;28;19913;-51
2021/12/12 04:05:31;;;;;;;;;;;;;;;16.68;44.50;101806.97;5085497;28;19968;-47
2021/12/12 04:07:56;;;;;;;;;;;;;;;16.68;44.53;101803.44;5085385;28;19955;-48
2021/12/12 04:10:24;;;;;;;;;;;;;;;16.68;44.58;101800.75;5084926;28;19927;-49
2021/12/12 04:12:49;;;;;;;;;;;;;;;16.68;44.55;101801.59;5085452;28;19923;-47
2021/12/12 04:15:15;;;;;;;;;;;;;;;16.69;44.45;101799.78;5084698;28;19980;-46
2021/12/12 04:17:40;;;;;;;;;;;;;;;16.69;44.53;101789.03;5085317;28;19913;-48
2021/12/12 04:20:10;;;;;;;;;;;;;;;16.69;44.47;101783.66;5084898;28;20028;-48
2021/12/12 04:22:35;;;;;;;;;;;;;;;16.69;44.32;101783.66;5084876;28;19939;-46
2021/12/12 04:25:01;;;;;;;;;;;;;;;16.68;44.48;101780.13;5085212;28;19912;-49
2021/12/12 04:27:26;;;;;;;;;;;;;;;16.68;44.47;101777.44;5084904;28;19958;-47
2021/12/12 04:29:52;;;;;;;;;;;;;;;16.67;44.38;101786.47;5083947;28;19919;-45
2021/12/12 04:32:19;;;;;;;;;;;;;;;16.67;44.55;101789.16;5085077;28;19963;-46
2021/12/12 04:34:45;;;;;;;;;;;;;;;16.66;44.52;101786.63;5085170;28;19918;-46
2021/12/12 04:37:11;;;;;;;;;;;;;;;16.66;44.58;101790.16;5084736;28;19912;-49
2021/12/12 04:39:38;;;;;;;;;;;;;;;16.66;44.40;101790.16;5084570;28;19912;-47
2021/12/12 04:42:08;;;;;;;;;;;;;;;16.66;44.45;101786.63;5084980;28;19912;-48
2021/12/12 04:44:36;;;;;;;;;;;;;;;16.66;44.48;101790.16;5084795;28;19912;-48
2021/12/12 04:49:55;;;;;;;;;;;;;;;16.66;44.58;101787.47;5087074;28;19943;-46
2021/12/12 04:52:22;;;;;;;;;;;;;;;16.66;44.38;101779.41;5067876;28;19982;-51
2021/12/12 04:54:49;;;;;;;;;;;;;;;16.66;44.49;101782.09;5066847;28;20362;-49
2021/12/12 04:57:28;;;;;;;;;;;;;;;16.66;44.59;101786.63;5066822;28;19919;-46
2021/12/12 04:59:54;;;;;;;;;;;;;;;16.57;44.48;101771.31;5083418;28;19987;-48
2021/12/12 05:02:24;;;;;;;;;;;;;;;16.66;44.53;101783.94;5066561;28;20020;-49
2021/12/12 05:04:53;;;;;;;;;;;;;;;16.66;44.43;101794.69;5066790;28;19956;-45
2021/12/12 05:07:37;;;;;;;;;;;;;;;16.65;44.43;101793.84;5066295;28;19913;-46
2021/12/12 05:10:16;;;;;;;;;;;;;;;16.66;44.47;101797.38;5083993;28;19921;-47
2021/12/12 05:12:44;;;;;;;;;;;;;;;16.66;44.39;101795.53;5065815;28;21376;-48
2021/12/12 05:15:12;;;;;;;;;;;;;;;16.67;44.32;101791.00;5083708;28;19931;-50
2021/12/12 05:17:39;;;;;;;;;;;;;;;16.67;44.52;101794.53;5066313;28;19965;-49
2021/12/12 05:20:08;;;;;;;;;;;;;;;16.68;44.51;101790.03;5084153;28;19920;-46
2021/12/12 05:22:35;;;;;;;;;;;;;;;16.68;44.48;101785.50;5084061;28;20460;-45
2021/12/12 05:25:03;;;;;;;;;;;;;;;16.68;44.44;101780.13;5066234;28;19913;-49
2021/12/12 05:27:28;;;;;;;;;;;;;;;16.68;44.41;101776.59;5084339;28;19912;-47
2021/12/12 05:29:58;;;;;;;;;;;;;;;16.70;44.40;101782.69;5064853;28;19916;-46
2021/12/12 05:32:23;;;;;;;;;;;;;;;16.69;44.44;101771.09;5084287;28;19924;-46
2021/12/12 05:34:49;;;;;;;;;;;;;;;16.70;44.50;101785.38;5049414;28;19916;-51
2021/12/12 05:37:15;;;;;;;;;;;;;;;16.70;44.51;101783.53;5066132;28;19951;-48
2021/12/12 05:39:40;;;;;;;;;;;;;;;16.70;44.41;101788.91;5083730;28;19919;-47
2021/12/12 05:42:06;;;;;;;;;;;;;;;16.71;44.36;101785.25;5066113;28;19913;-47
2021/12/12 05:44:31;;;;;;;;;;;;;;;16.71;44.49;101797.81;5065889;28;19912;-50
2021/12/12 05:46:57;;;;;;;;;;;;;;;16.71;44.45;101806.72;5082151;28;19920;-51
2021/12/12 05:49:22;;;;;;;;;;;;;;;16.72;44.44;101784.28;5083519;28;19970;-46
2021/12/12 05:51:48;;;;;;;;;;;;;;;16.72;44.43;101786.97;5062308;28;19921;-47
2021/12/12 05:54:13;;;;;;;;;;;;;;;16.74;44.44;101792.22;5046142;28;19920;-46
2021/12/12 05:56:40;;;;;;;;;;;;;;;16.74;44.30;101784.16;5065437;28;19940;-51
2021/12/12 05:59:05;;;;;;;;;;;;;;;16.74;44.47;101790.38;5067620;28;19913;-48
2021/12/12 06:01:31;;;;;;;;;;;;;;;16.75;44.46;101783.19;5073406;28;19913;-51
2021/12/12 06:03:56;;;;;;;;;;;;;;;16.76;44.49;101797.44;5087918;28;19920;-52
2021/12/12 06:06:26;;;;;;;;;;;;;;;16.77;44.42;101797.31;5086688;28;19912;-51
2021/12/12 06:08:51;;;;;;;;;;;;;;;16.77;44.34;101794.63;5075248;28;19935;-48
2021/12/12 06:11:20;;;;;;;;;;;;;;;16.77;44.47;101801.81;5052981;28;20286;-50
2021/12/12 06:13:45;;;;;;;;;;;;;;;16.78;44.37;101798.16;5076928;28;19920;-52
2021/12/12 06:16:18;;;;;;;;;;;;;;;16.79;44.40;101802.56;5065290;28;19988;-47
2021/12/12 06:18:43;;;;;;;;;;;;;;;16.79;44.45;101795.34;5064054;28;20035;-50
2021/12/12 06:21:08;;;;;;;;;;;;;;;16.80;44.61;101793.50;5071066;28;20535;-51
2021/12/12 06:23:34;;;;;;;;;;;;;;;16.80;44.64;101798.88;5067035;28;19944;-48
2021/12/12 06:25:59;;;;;;;;;;;;;;;16.81;44.58;101800.59;5058357;28;20404;-51
2021/12/12 06:28:28;;;;;;;;;;;;;;;16.81;44.50;101801.44;5080452;28;20468;-47
2021/12/12 06:30:54;;;;;;;;;;;;;;;16.83;44.51;101798.63;5066885;28;19923;-48
2021/12/12 06:33:19;;;;;;;;;;;;;;;16.83;44.62;101804.84;5067087;28;19913;-52
2021/12/12 06:35:44;;;;;;;;;;;;;;;16.83;44.53;101801.31;5067185;28;19924;-52
2021/12/12 06:38:10;;;;;;;;;;;;;;;16.84;44.64;101798.50;5075555;28;19920;-51
2021/12/12 06:40:37;;;;;;;;;;;;;;;16.84;44.75;101806.53;5076342;28;19974;-45
2021/12/12 06:43:04;;;;;;;;;;;;;;;16.85;44.81;101810.94;5067204;28;19913;-46
2021/12/12 06:45:29;;;;;;;;;;;;;;;16.87;44.79;101813.50;5074485;28;20454;-51
2021/12/12 06:47:55;;;;;;;;;;;;;;;16.88;44.89;101807.13;5086660;28;20463;-49
2021/12/12 06:50:20;;;;;;;;;;;;;;;16.89;44.89;101808.81;5083230;28;19916;-47
2021/12/12 06:52:45;;;;;;;;;;;;;;;16.89;44.87;101807.00;5070725;28;20368;-46
2021/12/12 06:55:11;;;;;;;;;;;;;;;16.90;44.93;101808.69;5073137;28;19917;-46
2021/12/12 06:57:36;;;;;;;;;;;;;;;16.90;45.12;101803.31;5073478;28;20385;-49
2021/12/12 07:00:03;;;;;;;;;;;;;;;16.93;45.19;101807.56;5076214;28;19922;-47
2021/12/12 07:02:28;;;;;;;;;;;;;;;16.93;45.13;101815.63;5080155;28;19920;-45
2021/12/12 07:04:53;;;;;;;;;;;;;;;16.94;45.23;101820.00;5059412;28;19912;-47
2021/12/12 07:07:19;;;;;;;;;;;;;;;16.96;45.15;101812.69;5070245;28;20021;-50
2021/12/12 07:09:45;;;;;;;;;;;;;;;16.98;45.35;101813.41;5085393;28;19916;-49
2021/12/12 07:12:11;;;;;;;;;;;;;;;16.99;45.14;101821.34;5086311;28;19921;-47
2021/12/12 07:14:37;;;;;;;;;;;;;;;16.99;45.27;101817.78;5083247;28;19912;-46
2021/12/12 07:17:02;;;;;;;;;;;;;;;16.99;45.25;101823.16;5082949;28;20573;-45
2021/12/12 07:19:27;;;;;;;;;;;;;;;17.00;45.38;101827.56;5080365;28;19956;-47
2021/12/12 07:21:53;;;;;;;;;;;;;;;17.00;45.37;101822.19;5058624;28;19987;-50
2021/12/12 07:24:18;;;;;;;;;;;;;;;17.01;45.34;101825.72;5079497;28;19913;-46
2021/12/12 07:26:43;;;;;;;;;;;;;;;17.01;45.38;101825.72;5068840;28;20066;-47
2021/12/12 07:29:09;;;;;;;;;;;;;;;17.01;45.53;101821.19;5084580;28;19916;-49
2021/12/12 07:31:35;;;;;;;;;;;;;;;17.03;45.33;101821.91;5085239;28;19983;-48
2021/12/12 07:34:02;;;;;;;;;;;;;;;17.06;45.36;101824.31;5077352;28;19923;-47
2021/12/12 07:36:30;;;;;;;;;;;;;;;17.09;45.46;101818.69;5085658;28;19979;-49
2021/12/12 07:38:56;;;;;;;;;;;;;;;17.12;45.45;101818.44;5082329;28;19938;-51
2021/12/12 07:41:23;;;;;;;;;;;;;;;17.16;45.43;101825.25;5077112;28;19912;-45
2021/12/12 07:43:48;;;;;;;;;;;;;;;17.19;45.37;101826.78;5080020;28;19912;-48
2021/12/12 07:46:13;;;;;;;;;;;;;;;17.22;45.33;101823.84;5076004;28;20393;-48
2021/12/12 07:48:39;;;;;;;;;;;;;;;17.23;45.41;101826.38;5071941;28;19966;-49
2021/12/12 07:51:05;;;;;;;;;;;;;;;17.26;45.31;101835.16;5072567;28;19912;-49
2021/12/12 07:53:30;;;;;;;;;;;;;;;17.28;45.20;101841.25;5082301;28;20439;-47
2021/12/12 07:55:55;;;;;;;;;;;;;;;17.28;45.16;101839.41;5067253;28;19913;-50
2021/12/12 07:58:21;;;;;;;;;;;;;;;17.29;45.35;101843.81;5078613;28;20376;-47
2021/12/12 08:00:46;;;;;;;;;;;;;;;17.30;45.30;101850.88;5077068;28;19927;-51
2021/12/12 08:03:13;;;;;;;;;;;;;;;17.32;45.10;101858.81;5077151;28;19927;-47
2021/12/12 08:05:38;;;;;;;;;;;;;;;17.32;45.13;101856.13;5079332;28;19916;-48
2021/12/12 08:08:05;;;;;;;;;;;;;;;17.33;45.06;101858.69;5069441;28;19959;-48
2021/12/12 08:10:30;;;;;;;;;;;;;;;17.34;45.13;101859.53;5077031;28;19924;-49
2021/12/12 08:12:55;;;;;;;;;;;;;;;17.35;45.04;101864.78;5066148;28;19947;-47
2021/12/12 08:15:21;;;;;;;;;;;;;;;17.37;45.13;101870.00;5063370;28;20333;-48
2021/12/12 08:17:46;;;;;;;;;;;;;;;17.37;45.25;101867.31;5080129;28;19924;-50
2021/12/12 08:20:13;;;;;;;;;;;;;;;17.38;44.96;101872.56;5083006;28;19912;-45
2021/12/12 08:22:38;;;;;;;;;;;;;;;17.39;45.18;101882.34;5082846;28;19920;-51
2021/12/12 08:25:05;;;;;;;;;;;;;;;17.41;45.01;101883.03;5065455;28;19920;-52
2021/12/12 08:27:30;;;;;;;;;;;;;;;17.44;45.13;101881.94;5082119;28;20389;-47
2021/12/12 08:29:56;;;;;;;;;;;;;;;17.44;45.12;101888.16;5064966;28;19920;-47
2021/12/12 08:32:22;;;;;;;;;;;;;;;17.46;45.11;101896.94;5082937;28;20464;-50
2021/12/12 08:34:47;;;;;;;;;;;;;;;17.47;45.25;101892.41;5082781;28;19975;-49
2021/12/12 08:37:13;;;;;;;;;;;;;;;17.48;45.02;101886.03;5063902;28;20320;-50
2021/12/12 08:39:38;;;;;;;;;;;;;;;17.49;45.20;101888.59;5081767;28;19930;-50
2021/12/12 08:42:04;;;;;;;;;;;;;;;17.50;45.03;101892.16;5079006;28;20276;-46
2021/12/12 08:44:29;;;;;;;;;;;;;;;17.51;45.13;101891.16;5082130;28;20698;-48
2021/12/12 08:46:56;;;;;;;;;;;;;;;17.52;44.92;101884.78;5081076;28;19959;-44
2021/12/12 08:49:22;;;;;;;;;;;;;;;17.53;45.07;101897.25;5082210;28;19952;-45
2021/12/12 08:51:52;;;;;;;;;;;;;;;17.54;45.01;101888.19;5082415;28;19957;-47
2021/12/12 08:54:25;;;;;;;;;;;;;;;17.56;44.81;101896.13;5065042;28;19916;-44
2021/12/12 08:56:54;;;;;;;;;;;;;;;17.57;44.82;101889.75;5081560;28;19917;-45
2021/12/12 08:59:21;;;;;;;;;;;;;;;17.56;44.76;101890.75;5082057;28;19976;-45
2021/12/12 09:01:48;;;;;;;;;;;;;;;17.57;44.72;101893.28;5081785;28;19912;-43
2021/12/12 09:04:13;;;;;;;;;;;;;;;17.58;44.74;101899.53;5082255;28;19913;-47
2021/12/12 09:06:41;;;;;;;;;;;;;;;17.58;44.85;101896.84;5063892;28;19966;-49
2021/12/12 09:09:08;;;;;;;;;;;;;;;17.58;44.90;101902.22;5063782;28;20220;-45
2021/12/12 09:11:37;;;;;;;;;;;;;;;17.59;44.74;101906.63;5060514;28;19921;-46
2021/12/12 09:14:02;;;;;;;;;;;;;;;17.59;45.02;101903.94;5061196;28;20179;-50
2021/12/12 09:16:31;;;;;;;;;;;;;;;17.61;45.03;101915.38;5060980;28;20362;-43
2021/12/12 09:18:56;;;;;;;;;;;;;;;17.61;45.25;101918.09;5060481;28;19913;-44
2021/12/12 09:21:28;;;;;;;;;;;;;;;17.61;45.10;101918.09;5062341;28;20333;-49
2021/12/12 09:24:05;;;;;;;;;;;;;;;17.63;45.10;101925.03;5060634;28;19920;-49
2021/12/12 09:26:30;;;;;;;;;;;;;;;17.63;45.12;101922.34;5060225;28;19924;-49
2021/12/12 09:28:56;;;;;;;;;;;;;;;17.64;45.03;101926.75;5059892;28;20008;-45
2021/12/12 09:31:25;;;;;;;;;;;;;;;17.64;45.09;101924.03;5059411;28;19909;-48
2021/12/12 09:34:03;;;;;;;;;;;;;;;17.62;45.26;101927.84;5060699;28;19917;-44
2021/12/12 09:36:37;;;;;;;;;;;;;;;17.62;45.23;101931.38;5061461;28;19913;-50
2021/12/12 09:39:06;;;;;;;;;;;;;;;17.63;45.42;101937.63;5059614;28;20029;-46
2021/12/12 09:41:31;;;;;;;;;;;;;;;17.64;45.30;101937.50;5061915;28;19916;-47
2021/12/12 09:44:03;;;;;;;;;;;;;;;17.64;45.41;101942.88;5061833;28;19967;-46
2021/12/12 09:46:57;;;;;;;;;;;;;;;17.67;45.26;101944.41;5043050;28;19913;-45
2021/12/12 09:52:19;;;;;;;;;;;;;;;17.71;45.36;101938.66;5064339;28;20499;-50
2021/12/12 09:54:52;;;;;;;;;;;;;;;17.74;45.30;101943.78;5061943;28;19913;-48
2021/12/12 09:57:19;;;;;;;;;;;;;;;17.77;45.31;101941.81;5059175;28;19917;-46
2021/12/12 09:59:49;;;;;;;;;;;;;;;17.78;45.29;101939.00;5061345;28;19916;-53
2021/12/12 10:02:34;;;;;;;;;;;;;;;17.81;45.40;101932.50;5060080;28;20332;-45
2021/12/12 10:05:12;;;;;;;;;;;;;;;17.82;45.45;101936.88;5061794;28;20358;-45
2021/12/12 10:07:37;;;;;;;;;;;;;;;17.85;45.27;101934.78;5060479;28;19920;-45
2021/12/12 10:10:05;;;;;;;;;;;;;;;17.87;45.36;101942.69;5059499;28;19921;-47
2021/12/12 10:12:33;;;;;;;;;;;;;;;17.89;45.21;101932.66;5061645;28;19931;-51
2021/12/12 10:14:58;;;;;;;;;;;;;;;17.90;45.39;101934.34;5060818;28;19924;-52
2021/12/12 10:17:23;;;;;;;;;;;;;;;17.93;45.27;101929.56;5061172;28;19913;-50
2021/12/12 10:19:58;;;;;;;;;;;;;;;17.95;45.14;101934.78;5061356;28;19917;-46
2021/12/12 10:22:29;;;;;;;;;;;;;;;17.98;44.98;101932.69;5061444;28;19919;-50
2021/12/12 10:25:04;;;;;;;;;;;;;;;18.02;45.22;101929.72;5056335;28;19925;-47
2021/12/12 10:27:32;;;;;;;;;;;;;;;18.04;45.29;101931.28;5058739;28;19923;-50
2021/12/12 10:30:08;;;;;;;;;;;;;;;18.07;45.27;101935.53;5060323;28;19956;-49
2021/12/12 10:32:40;;;;;;;;;;;;;;;18.08;45.25;101938.09;5060645;28;19948;-46
2021/12/12 10:35:06;;;;;;;;;;;;;;;18.07;45.29;101922.94;5060376;28;19920;-46
2021/12/12 10:37:35;;;;;;;;;;;;;;;18.08;45.20;101932.69;5060038;28;19917;-45
2021/12/12 10:40:04;;;;;;;;;;;;;;;18.09;45.22;101936.25;5059027;28;19921;-46
2021/12/12 10:42:32;;;;;;;;;;;;;;;18.10;45.22;101929.88;5062843;28;19942;-46
2021/12/12 10:45:00;;;;;;;;;;;;;;;18.11;45.08;101927.03;5063267;28;19917;-43
2021/12/12 10:47:30;;;;;;;;;;;;;;;18.13;45.09;101926.91;5064345;28;19919;-46
2021/12/12 10:50:22;;;;;;;;;;;;;;;18.13;45.13;101927.75;5063509;28;19920;-47
2021/12/12 10:52:52;;;;;;;;;;;;;;;18.16;45.20;101932.84;5053554;28;19928;-42
2021/12/12 10:55:22;;;;;;;;;;;;;;;18.18;45.13;101927.31;5064487;28;19913;-47
2021/12/12 10:57:56;;;;;;;;;;;;;;;18.19;45.12;101923.66;5063546;28;19919;-47
2021/12/12 11:00:26;;;;;;;;;;;;;;;18.21;45.11;101929.75;5064105;28;19913;-48
2021/12/12 11:03:01;;;;;;;;;;;;;;;18.21;44.89;101913.59;5057917;28;20016;-49
2021/12/12 11:05:28;;;;;;;;;;;;;;;18.22;44.77;101926.94;5059524;28;19917;-49
2021/12/12 11:07:54;;;;;;;;;;;;;;;18.22;44.78;101912.59;5073226;28;19999;-49
2021/12/12 11:10:30;;;;;;;;;;;;;;;18.22;44.71;101916.16;5073313;28;19928;-47
2021/12/12 11:12:56;;;;;;;;;;;;;;;18.22;44.83;101916.16;5085507;28;19916;-51
2021/12/12 11:15:24;;;;;;;;;;;;;;;18.23;44.84;101920.56;5084532;28;19919;-49
2021/12/12 11:18:04;;;;;;;;;;;;;;;18.24;44.77;101926.78;5085496;28;19928;-51
2021/12/12 11:20:35;;;;;;;;;;;;;;;18.24;44.70;101919.56;5086136;28;19917;-49
2021/12/12 11:23:20;;;;;;;;;;;;;;;18.25;44.74;101923.09;5072011;28;20527;-51
2021/12/12 11:25:53;;;;;;;;;;;;;;;18.26;44.61;101929.31;5066333;28;19916;-46
2021/12/12 11:28:27;;;;;;;;;;;;;;;18.26;44.51;101927.47;5067336;28;19954;-47
2021/12/12 11:30:57;;;;;;;;;;;;;;;18.24;44.89;101924.94;5071318;28;19912;-48
2021/12/12 11:33:23;;;;;;;;;;;;;;;18.23;44.94;101917.00;5083143;28;19970;-46
2021/12/12 11:35:50;;;;;;;;;;;;;;;18.24;44.90;101919.56;5067243;28;19966;-46
2021/12/12 11:38:18;;;;;;;;;;;;;;;18.25;45.12;101928.47;5080666;28;19913;-47
2021/12/12 11:40:47;;;;;;;;;;;;;;;18.25;45.10;101925.78;5062014;28;19921;-48
2021/12/12 11:43:27;;;;;;;;;;;;;;;18.26;45.02;101924.78;5064662;28;20373;-50
2021/12/12 11:45:56;;;;;;;;;;;;;;;18.26;45.18;101927.47;5061563;28;19929;-46
2021/12/12 11:48:29;;;;;;;;;;;;;;;18.25;45.14;101931.19;5083256;28;19920;-49
2021/12/12 11:50:54;;;;;;;;;;;;;;;18.26;45.03;101932.03;5064799;28;19916;-47
2021/12/12 11:53:31;;;;;;;;;;;;;;;18.27;45.05;101939.13;5082331;28;19920;-48
2021/12/12 11:55:58;;;;;;;;;;;;;;;18.25;45.26;101936.56;5065977;28;19916;-46
2021/12/12 11:58:29;;;;;;;;;;;;;;;18.25;45.22;101939.25;5078472;28;19920;-49
2021/12/12 12:00:58;;;;;;;;;;;;;;;18.25;45.12;101944.63;5064328;28;19966;-45
2021/12/12 12:03:27;;;;;;;;;;;;;;;18.25;45.10;101941.94;5080283;28;19944;-45
2021/12/12 12:06:10;;;;;;;;;;;;;;;18.26;45.17;101940.09;5082051;28;19975;-50
2021/12/12 12:08:40;;;;;;;;;;;;;;;18.26;45.12;101940.09;5081596;28;19983;-49
2021/12/12 12:11:11;;;;;;;;;;;;;;;18.27;45.02;101949.91;5072046;28;19920;-51
2021/12/12 12:13:45;;;;;;;;;;;;;;;18.28;45.20;101948.91;5075311;28;19952;-50
2021/12/12 12:16:43;;;;;;;;;;;;;;;18.28;45.29;101938.13;5079546;28;19971;-47
2021/12/12 12:19:21;;;;;;;;;;;;;;;18.27;45.10;101942.66;5028149;28;19920;-50
2021/12/12 12:21:49;;;;;;;;;;;;;;;18.28;45.32;101952.44;5085397;28;19913;-49
2021/12/12 12:24:28;;;;;;;;;;;;;;;18.30;45.31;101946.91;5084449;28;19954;-51
2021/12/12 12:27:03;;;;;;;;;;;;;;;18.30;45.18;101949.59;5085102;28;19979;-48
2021/12/12 12:29:28;;;;;;;;;;;;;;;18.30;45.32;101947.75;5084532;28;19917;-49
2021/12/12 12:32:12;;;;;;;;;;;;;;;18.31;45.11;101953.97;5084378;28;19938;-50
2021/12/12 12:34:55;;;;;;;;;;;;;;;18.32;45.06;101963.78;5084967;28;19913;-49
2021/12/12 12:37:39;;;;;;;;;;;;;;;18.32;45.13;101964.63;5084597;28;19927;-50
2021/12/12 12:40:36;;;;;;;;;;;;;;;18.33;45.28;101957.41;5084444;28;19909;-52
2021/12/12 12:43:14;;;;;;;;;;;;;;;18.31;45.13;101957.56;5084789;28;19912;-50
2021/12/12 12:46:11;;;;;;;;;;;;;;;18.31;45.13;101954.88;5084054;28;19916;-48
2021/12/12 12:48:45;;;;;;;;;;;;;;;18.32;45.11;101958.41;5084616;28;19918;-48
2021/12/12 12:51:27;;;;;;;;;;;;;;;18.32;45.05;101955.72;5084748;28;19993;-49
2021/12/12 12:53:58;;;;;;;;;;;;;;;18.33;45.16;101958.25;5082936;28;19939;-47
2021/12/12 12:56:23;;;;;;;;;;;;;;;18.32;44.92;101959.25;5083369;28;19916;-52
2021/12/12 12:58:48;;;;;;;;;;;;;;;18.32;44.73;101961.94;5084186;28;19973;-52
2021/12/12 13:01:20;;;;;;;;;;;;;;;18.32;44.99;101964.63;5083713;28;19943;-49